Time;durP1;ratioP1;P1;durP2;ratioP2;P2;SDS_P1;SDS_P2;PMS_P1;PMS_P2;Temp;Humidity;BMP_temperature;BMP_pressure;BME280_temperature;BME280_humidity;BME280_pressure;Samples;Min_cycle;Max_cycle;Signal;HPM_P1;HPM_P2
2023/08/23 00:02:25;;;;;;;6.70;2.70;;;;;;;18.95;100.00;101963.66;5252184;28;20017;-71
2023/08/23 00:04:57;;;;;;;6.60;2.83;;;;;;;18.91;100.00;101956.03;5235214;28;20116;-71
2023/08/23 00:07:28;;;;;;;7.40;2.90;;;;;;;19.14;100.00;101948.94;5249316;28;20029;-71
2023/08/23 00:09:59;;;;;;;6.90;2.97;;;;;;;19.22;100.00;101951.81;5252887;28;20459;-71
2023/08/23 00:12:31;;;;;;;8.73;2.67;;;;;;;18.90;100.00;101946.38;5250313;28;20041;-71
2023/08/23 00:15:03;;;;;;;5.07;3.03;;;;;;;18.72;100.00;101933.56;5233213;28;20087;-71
2023/08/23 00:17:34;;;;;;;4.33;2.57;;;;;;;18.99;100.00;101943.84;5252236;28;20036;-71
2023/08/23 00:20:06;;;;;;;3.90;2.67;;;;;;;18.81;100.00;101950.59;5245130;28;20463;-71
2023/08/23 00:22:37;;;;;;;6.70;3.40;;;;;;;18.80;100.00;101943.63;5235423;28;20201;-71
2023/08/23 00:25:09;;;;;;;5.73;3.33;;;;;;;18.61;100.00;101935.25;5251835;28;20104;-72
2023/08/23 00:27:40;;;;;;;4.97;2.63;;;;;;;19.02;100.00;101952.53;5247266;28;20033;-72
2023/08/23 00:30:12;;;;;;;6.20;2.73;;;;;;;19.06;100.00;101943.38;5248251;28;20017;-72
2023/08/23 00:32:43;;;;;;;5.97;2.97;;;;;;;18.93;100.00;101941.69;5250790;28;20044;-72
2023/08/23 00:35:14;;;;;;;4.73;2.80;;;;;;;18.85;100.00;101939.59;5253076;28;20025;-72
2023/08/23 00:37:46;;;;;;;7.03;3.00;;;;;;;18.58;100.00;101935.50;5242654;28;20042;-72
2023/08/23 00:40:18;;;;;;;8.37;3.40;;;;;;;18.78;100.00;101925.13;5250369;28;20103;-72
2023/08/23 00:42:50;;;;;;;5.27;3.17;;;;;;;18.52;100.00;101925.34;5251937;28;20490;-72
2023/08/23 00:45:21;;;;;;;4.33;2.83;;;;;;;18.45;100.00;101918.84;5235153;28;20090;-72
2023/08/23 00:47:52;;;;;;;6.33;2.90;;;;;;;18.56;100.00;101921.50;5230673;28;20089;-72
2023/08/23 00:50:24;;;;;;;4.10;2.43;;;;;;;18.47;100.00;101907.13;5229432;28;20036;-72
2023/08/23 00:52:55;;;;;;;4.53;2.57;;;;;;;18.45;100.00;101913.53;5235514;28;20143;-72
2023/08/23 00:55:27;;;;;;;5.83;2.80;;;;;;;18.44;100.00;101907.38;5246203;28;20048;-71
2023/08/23 00:57:58;;;;;;;6.57;3.20;;;;;;;18.30;100.00;101911.09;5247173;28;20037;-72
2023/08/23 01:00:30;;;;;;;5.57;2.63;;;;;;;18.54;100.00;101915.47;5244728;28;20029;-71
2023/08/23 01:03:02;;;;;;;3.90;2.50;;;;;;;18.56;100.00;101910.03;5251619;28;20044;-72
2023/08/23 01:05:39;;;;;;;4.73;3.20;;;;;;;18.79;100.00;101918.88;5234019;28;20060;-72
2023/08/23 01:08:31;;;;;;;5.57;2.90;;;;;;;18.66;100.00;101915.50;5233686;28;20044;-72
2023/08/23 01:11:27;;;;;;;8.83;2.97;;;;;;;18.88;100.00;101914.66;5234237;28;20029;-72
2023/08/23 01:14:03;;;;;;;6.17;3.23;;;;;;;18.42;100.00;101916.41;5240401;28;20514;-72
2023/08/23 01:16:35;;;;;;;5.40;2.87;;;;;;;18.69;100.00;101920.56;5252001;28;20082;-72
2023/08/23 01:19:28;;;;;;;5.10;3.10;;;;;;;18.57;100.00;101917.06;5252698;28;20029;-73
2023/08/23 01:22:04;;;;;;;6.97;3.23;;;;;;;18.30;100.00;101921.69;5239432;28;20021;-71
2023/08/23 01:24:35;;;;;;;5.73;3.07;;;;;;;18.33;100.00;101916.16;5234937;28;20036;-72
2023/08/23 01:27:07;;;;;;;5.77;3.00;;;;;;;18.24;100.00;101917.69;5252657;28;20025;-72
2023/08/23 01:29:38;;;;;;;4.70;3.30;;;;;;;18.00;100.00;101920.34;5235008;28;20409;-72
2023/08/23 01:32:40;;;;;;;4.57;2.90;;;;;;;18.65;100.00;101924.41;5237074;28;20072;-71
2023/08/23 01:35:21;;;;;;;5.63;2.93;;;;;;;18.57;100.00;101925.84;5246745;28;20029;-71
2023/08/23 01:37:54;;;;;;;8.93;3.33;;;;;;;18.20;100.00;101918.06;5252745;28;20082;-71
2023/08/23 01:40:26;;;;;;;5.40;3.10;;;;;;;18.34;100.00;101917.84;5252199;28;20352;-72
2023/08/23 01:42:57;;;;;;;6.57;3.33;;;;;;;18.51;100.00;101915.72;5252368;28;20573;-72
2023/08/23 01:45:29;;;;;;;6.67;3.07;;;;;;;18.20;100.00;101915.41;5237274;28;20064;-72
2023/08/23 01:48:00;;;;;;;5.80;3.13;;;;;;;18.13;100.00;101901.75;5230221;28;20087;-74
2023/08/23 01:50:31;;;;;;;6.87;3.33;;;;;;;18.33;100.00;101902.91;5245732;28;20075;-71
2023/08/23 01:53:03;;;;;;;6.53;3.20;;;;;;;18.23;100.00;101899.25;5245672;28;20036;-72
2023/08/23 01:55:34;;;;;;;12.13;4.33;;;;;;;18.28;100.00;101902.41;5246636;28;20439;-72
2023/08/23 01:58:06;;;;;;;10.20;3.97;;;;;;;18.09;100.00;101906.41;5252927;28;20391;-71
2023/08/23 02:00:37;;;;;;;5.93;2.60;;;;;;;18.13;100.00;101899.94;5238954;28;20495;-71
2023/08/23 02:03:08;;;;;;;8.90;3.00;;;;;;;17.97;100.00;101910.00;5251918;28;20029;-71
2023/08/23 02:05:40;;;;;;;6.77;3.63;;;;;;;18.09;100.00;101902.91;5255755;28;20043;-71
2023/08/23 02:08:13;;;;;;;6.03;2.77;;;;;;;18.17;100.00;101910.34;5256324;28;20471;-71
2023/08/23 02:10:44;;;;;;;6.77;2.50;;;;;;;17.77;100.00;101901.72;5248155;28;20063;-72
2023/08/23 02:13:15;;;;;;;5.30;2.93;;;;;;;17.81;100.00;101905.84;5254848;28;20052;-71
2023/08/23 02:15:47;;;;;;;5.63;3.80;;;;;;;17.56;100.00;101907.63;5230382;28;20041;-71
2023/08/23 02:18:19;;;;;;;10.10;7.10;;;;;;;17.55;100.00;101905.94;5242308;28;20021;-72
2023/08/23 02:20:58;;;;;;;11.57;9.37;;;;;;;17.72;100.00;101901.19;5232181;28;20427;-72
2023/08/23 02:23:29;;;;;;;6.70;6.00;;;;;;;17.52;100.00;101904.34;5254789;28;20056;-71
2023/08/23 02:26:01;;;;;;;8.67;6.13;;;;;;;17.90;100.00;101910.47;5235703;28;20060;-72
2023/08/23 02:28:32;;;;;;;8.27;5.53;;;;;;;17.89;100.00;101902.63;5225033;28;20021;-72
2023/08/23 02:31:04;;;;;;;8.87;5.43;;;;;;;17.81;100.00;101891.72;5250873;28;20480;-71
2023/08/23 02:33:35;;;;;;;7.10;5.43;;;;;;;17.60;100.00;101889.72;5253963;28;20439;-71
2023/08/23 02:36:06;;;;;;;7.10;4.27;;;;;;;17.68;100.00;101900.59;5237463;28;20108;-72
2023/08/23 02:38:37;;;;;;;6.87;4.40;;;;;;;17.83;100.00;101901.28;5254782;28;20119;-72
2023/08/23 02:41:09;;;;;;;6.07;4.37;;;;;;;17.57;100.00;101905.84;5243792;28;20057;-71
2023/08/23 02:43:40;;;;;;;9.77;5.00;;;;;;;17.82;100.00;101901.38;5236664;28;20627;-71
2023/08/23 02:46:11;;;;;;;7.47;4.43;;;;;;;17.52;100.00;101900.88;5252686;28;20086;-72
2023/08/23 02:48:43;;;;;;;9.77;5.00;;;;;;;17.51;100.00;101904.47;5227835;28;20024;-71
2023/08/23 02:51:14;;;;;;;6.17;4.03;;;;;;;17.56;100.00;101904.97;5251159;28;20540;-73
2023/08/23 02:53:45;;;;;;;7.90;4.30;;;;;;;17.39;100.00;101895.63;5254630;28;20029;-72
2023/08/23 02:56:17;;;;;;;6.30;4.33;;;;;;;17.25;100.00;101893.97;5249515;28;20229;-73
2023/08/23 02:58:48;;;;;;;5.87;3.43;;;;;;;17.27;100.00;101892.91;5241286;28;20027;-71
2023/08/23 03:01:20;;;;;;;7.17;3.13;;;;;;;17.19;100.00;101883.84;5235642;28;20035;-72
2023/08/23 03:03:51;;;;;;;6.33;3.43;;;;;;;17.08;100.00;101877.47;5239020;28;20051;-71
2023/08/23 03:06:22;;;;;;;4.43;2.97;;;;;;;17.21;100.00;101885.41;5236593;28;20449;-71
2023/08/23 03:08:54;;;;;;;5.40;2.60;;;;;;;17.20;100.00;101882.88;5242406;28;20053;-72
2023/08/23 03:11:25;;;;;;;5.80;2.63;;;;;;;17.37;100.00;101887.78;5227049;28;20136;-71
2023/08/23 03:13:57;;;;;;;4.47;2.60;;;;;;;17.26;100.00;101879.78;5222885;28;20426;-71
2023/08/23 03:16:28;;;;;;;4.83;2.67;;;;;;;17.20;100.00;101877.56;5246117;28;20041;-71
2023/08/23 03:18:59;;;;;;;7.37;3.77;;;;;;;17.49;100.00;101883.41;5234164;28;20021;-71
2023/08/23 03:21:31;;;;;;;7.00;2.87;;;;;;;17.51;100.00;101880.63;5250403;28;20410;-72
2023/08/23 03:24:02;;;;;;;4.87;2.50;;;;;;;17.19;100.00;101882.03;5242256;28;20095;-72
2023/08/23 03:26:33;;;;;;;4.43;2.30;;;;;;;17.14;100.00;101879.69;5255025;28;20041;-72
2023/08/23 03:29:05;;;;;;;5.80;2.90;;;;;;;17.14;100.00;101873.59;5252350;28;20021;-72
2023/08/23 03:31:36;;;;;;;8.53;3.13;;;;;;;17.05;100.00;101860.00;5254625;28;20081;-73
2023/08/23 03:34:08;;;;;;;4.27;2.50;;;;;;;17.33;100.00;101875.72;5249788;28;20033;-72
2023/08/23 03:36:39;;;;;;;6.23;2.07;;;;;;;17.04;100.00;101881.28;5244838;28;20025;-72
2023/08/23 03:39:10;;;;;;;12.03;3.50;;;;;;;16.96;100.00;101881.00;5248809;28;20033;-71
2023/08/23 03:41:41;;;;;;;7.50;2.50;;;;;;;16.95;100.00;101885.44;5265972;28;20031;-72
2023/08/23 03:44:13;;;;;;;4.87;2.53;;;;;;;16.84;100.00;101886.22;5253949;28;20091;-72
2023/08/23 03:46:44;;;;;;;8.33;2.37;;;;;;;16.90;100.00;101875.19;5238481;28;20505;-71
2023/08/23 03:49:15;;;;;;;5.50;2.00;;;;;;;16.95;100.00;101879.31;5227617;28;20040;-72
2023/08/23 03:51:47;;;;;;;3.27;2.10;;;;;;;17.16;100.00;101877.78;5253995;28;20037;-72
2023/08/23 03:54:20;;;;;;;6.40;2.10;;;;;;;17.06;100.00;101879.38;5243375;28;20063;-72
2023/08/23 03:56:52;;;;;;;4.57;2.10;;;;;;;17.25;100.00;101881.59;5251628;28;20024;-72
2023/08/23 03:59:23;;;;;;;8.27;3.20;;;;;;;17.03;100.00;101880.47;5246711;28;20033;-72
2023/08/23 04:01:54;;;;;;;5.20;2.60;;;;;;;16.96;100.00;101875.69;5230127;28;20380;-71
2023/08/23 04:04:25;;;;;;;7.23;2.63;;;;;;;17.10;100.00;101880.91;5251308;28;20077;-72
2023/08/23 04:06:57;;;;;;;7.60;3.10;;;;;;;17.21;100.00;101881.94;5251611;28;20031;-72
2023/08/23 04:09:28;;;;;;;6.93;3.10;;;;;;;17.09;100.00;101873.84;5253377;28;20105;-72
2023/08/23 04:12:00;;;;;;;5.00;2.87;;;;;;;17.07;100.00;101878.41;5248639;28;20037;-72
2023/08/23 04:14:31;;;;;;;7.83;2.70;;;;;;;17.15;100.00;101884.06;5253757;28;20049;-72
2023/08/23 04:17:03;;;;;;;11.00;2.80;;;;;;;17.21;100.00;101887.22;5251683;28;20029;-72
2023/08/23 04:19:36;;;;;;;5.57;2.90;;;;;;;17.15;100.00;101889.34;5233818;28;20021;-71
2023/08/23 04:22:07;;;;;;;5.07;2.47;;;;;;;16.93;100.00;101876.78;5251005;28;20021;-71
2023/08/23 04:24:38;;;;;;;8.83;3.70;;;;;;;17.09;100.00;101889.75;5234092;28;20021;-71
2023/08/23 04:27:09;;;;;;;10.90;3.37;;;;;;;16.87;100.00;101887.78;5226285;28;20025;-70
2023/08/23 04:29:41;;;;;;;4.83;2.47;;;;;;;16.96;100.00;101879.19;5251705;28;20420;-71
2023/08/23 04:32:12;;;;;;;11.67;3.80;;;;;;;16.89;100.00;101891.16;5248762;28;20037;-71
2023/08/23 04:34:44;;;;;;;10.07;4.10;;;;;;;16.87;100.00;101891.28;5249358;28;20036;-71
2023/08/23 04:37:15;;;;;;;8.77;3.13;;;;;;;16.86;100.00;101888.75;5250711;28;20036;-71
2023/08/23 04:39:46;;;;;;;4.37;3.10;;;;;;;16.72;100.00;101890.53;5251628;28;20029;-71
2023/08/23 04:42:18;;;;;;;6.57;3.30;;;;;;;16.76;100.00;101888.53;5249928;28;20475;-71
2023/08/23 04:44:49;;;;;;;11.13;4.23;;;;;;;16.79;100.00;101891.78;5250669;28;20028;-71
2023/08/23 04:47:20;;;;;;;12.37;4.57;;;;;;;16.96;100.00;101886.28;5252629;28;20029;-72
2023/08/23 04:49:52;;;;;;;9.73;3.93;;;;;;;16.82;100.00;101898.69;5250980;28;20155;-72
2023/08/23 04:52:23;;;;;;;8.13;3.57;;;;;;;17.08;100.00;101881.91;5242224;28;20033;-72
2023/08/23 04:54:54;;;;;;;9.97;3.97;;;;;;;16.80;100.00;101887.34;5250113;28;20053;-72
2023/08/23 04:57:26;;;;;;;10.77;3.53;;;;;;;16.97;100.00;101890.59;5252552;28;20104;-71
2023/08/23 04:59:57;;;;;;;12.77;3.73;;;;;;;16.85;100.00;101881.75;5247563;28;20487;-72
2023/08/23 05:02:28;;;;;;;5.80;3.77;;;;;;;17.02;100.00;101889.34;5245947;28;20108;-72
2023/08/23 05:05:00;;;;;;;6.43;3.63;;;;;;;16.90;100.00;101884.91;5240357;28;20036;-71
2023/08/23 05:07:34;;;;;;;8.70;3.30;;;;;;;17.00;100.00;101888.59;5234819;28;20031;-71
2023/08/23 05:10:06;;;;;;;5.70;2.70;;;;;;;17.01;100.00;101887.66;5252227;28;20043;-72
2023/08/23 05:12:37;;;;;;;9.20;3.03;;;;;;;17.13;100.00;101888.59;5262233;28;20496;-71
2023/08/23 05:15:09;;;;;;;5.77;3.07;;;;;;;17.11;100.00;101882.56;5256121;28;20083;-71
2023/08/23 05:17:40;;;;;;;8.90;3.50;;;;;;;17.23;100.00;101880.00;5235170;28;20052;-71
2023/08/23 05:20:13;;;;;;;7.43;2.73;;;;;;;17.19;100.00;101878.53;5252123;28;20025;-71
2023/08/23 05:22:44;;;;;;;3.77;2.77;;;;;;;17.15;100.00;101868.19;5253598;28;20024;-71
2023/08/23 05:25:16;;;;;;;6.07;2.63;;;;;;;17.21;100.00;101866.03;5256828;28;20021;-72
2023/08/23 05:27:47;;;;;;;6.20;2.87;;;;;;;17.27;100.00;101877.03;5253056;28;20219;-71
2023/08/23 05:30:18;;;;;;;8.23;3.17;;;;;;;17.18;100.00;101877.69;5255583;28;20517;-71
2023/08/23 05:32:50;;;;;;;8.83;3.50;;;;;;;17.33;100.00;101869.59;5257021;28;20029;-71
2023/08/23 05:35:22;;;;;;;6.10;2.80;;;;;;;17.20;100.00;101882.88;5260415;28;20020;-73
2023/08/23 05:37:53;;;;;;;7.17;3.20;;;;;;;17.21;100.00;101887.22;5257111;28;20047;-72
2023/08/23 05:40:24;;;;;;;10.23;3.40;;;;;;;17.09;100.00;101873.03;5256123;28;20033;-71
2023/08/23 05:42:56;;;;;;;6.10;3.37;;;;;;;17.17;100.00;101882.13;5256084;28;20076;-72
2023/08/23 05:45:27;;;;;;;5.33;3.10;;;;;;;17.20;100.00;101890.81;5249511;28;20075;-73
2023/08/23 05:47:59;;;;;;;3.97;3.03;;;;;;;17.09;100.00;101889.75;5270339;28;20025;-71
2023/08/23 05:50:30;;;;;;;6.73;4.03;;;;;;;17.03;100.00;101890.19;5243595;28;20032;-72
2023/08/23 05:53:09;;;;;;;5.07;3.70;;;;;;;17.09;100.00;101892.38;5255392;28;20686;-69
2023/08/23 05:55:40;;;;;;;7.53;4.77;;;;;;;17.09;100.00;101878.34;5234755;28;20040;-72
2023/08/23 05:58:11;;;;;;;10.03;4.30;;;;;;;17.22;100.00;101891.53;5250831;28;20044;-72
2023/08/23 06:00:43;;;;;;;9.70;4.77;;;;;;;17.21;100.00;101897.81;5252844;28;20033;-71
2023/08/23 06:03:15;;;;;;;11.33;5.00;;;;;;;17.19;100.00;101889.13;5245426;28;20116;-73
2023/08/23 06:05:46;;;;;;;12.93;5.30;;;;;;;17.36;100.00;101899.34;5252162;28;20036;-73
2023/08/23 06:08:17;;;;;;;13.30;5.53;;;;;;;17.37;100.00;101902.81;5254509;28;20032;-73
2023/08/23 06:10:49;;;;;;;11.30;6.80;;;;;;;17.53;100.00;101902.56;5255760;28;20049;-73
2023/08/23 06:13:20;;;;;;;11.90;6.27;;;;;;;17.64;100.00;101897.34;5253090;28;20142;-73
2023/08/23 06:15:51;;;;;;;9.67;6.67;;;;;;;17.56;100.00;101899.69;5252539;28;20033;-72
2023/08/23 06:18:23;;;;;;;7.37;5.63;;;;;;;17.61;100.00;101900.19;5250533;28;20037;-72
2023/08/23 06:20:54;;;;;;;10.27;6.33;;;;;;;17.71;100.00;101888.94;5255838;28;20060;-72
2023/08/23 06:23:26;;;;;;;11.60;6.90;;;;;;;17.87;100.00;101904.53;5249145;28;20491;-72
2023/08/23 06:26:02;;;;;;;9.47;6.03;;;;;;;17.95;100.00;101906.59;5254358;28;20107;-72
2023/08/23 06:28:33;;;;;;;16.17;6.97;;;;;;;17.96;100.00;101903.00;5227869;28;20025;-72
2023/08/23 06:31:05;;;;;;;16.57;7.70;;;;;;;18.06;100.00;101914.63;5234208;28;20462;-70
2023/08/23 06:33:36;;;;;;;22.80;9.67;;;;;;;18.03;100.00;101896.25;5230061;28;20033;-72
2023/08/23 06:36:09;;;;;;;18.90;10.10;;;;;;;18.13;100.00;101909.69;5241880;28;20046;-72
2023/08/23 06:38:44;;;;;;;24.87;12.10;;;;;;;18.18;100.00;101901.41;5253850;28;20032;-73
2023/08/23 06:41:15;;;;;;;19.03;10.20;;;;;;;18.24;100.00;101909.75;5244305;28;20033;-74
2023/08/23 06:43:47;;;;;;;17.10;9.40;;;;;;;18.19;100.00;101892.47;5237590;28;20025;-71
2023/08/23 06:46:19;;;;;;;14.67;8.67;;;;;;;18.28;100.00;101907.69;5254548;28;20894;-72
2023/08/23 06:48:50;;;;;;;10.43;7.83;;;;;;;18.37;100.00;101898.19;5237547;28;20103;-73
2023/08/23 06:51:22;;;;;;;15.57;6.13;;;;;;;18.46;100.00;101907.25;5251400;28;20094;-71
2023/08/23 06:53:54;;;;;;;11.90;6.47;;;;;;;18.47;100.00;101906.28;5244745;28;20254;-70
2023/08/23 06:56:26;;;;;;;11.70;6.73;;;;;;;18.47;100.00;101896.53;5229881;28;20025;-69
2023/08/23 06:58:57;;;;;;;23.80;8.77;;;;;;;18.59;100.00;101908.00;5219744;28;20464;-70
2023/08/23 07:01:28;;;;;;;10.70;6.70;;;;;;;18.64;100.00;101914.75;5231471;28;20096;-70
2023/08/23 07:04:00;;;;;;;12.87;8.07;;;;;;;18.69;100.00;101925.88;5228018;28;20075;-71
2023/08/23 07:06:31;;;;;;;8.87;7.27;;;;;;;18.73;100.00;101927.28;5241045;28;20112;-71
2023/08/23 07:09:03;;;;;;;13.60;8.17;;;;;;;18.86;100.00;101922.75;5251074;28;20538;-71
2023/08/23 07:11:35;;;;;;;12.17;8.47;;;;;;;18.93;100.00;101940.81;5248447;28;20028;-71
2023/08/23 07:14:08;;;;;;;14.30;8.40;;;;;;;19.00;100.00;101934.06;5236339;28;20044;-71
2023/08/23 07:16:40;;;;;;;13.67;7.90;;;;;;;19.17;100.00;101946.03;5247811;28;20025;-71
2023/08/23 07:19:12;;;;;;;16.07;8.37;;;;;;;19.17;100.00;101937.22;5232959;28;20037;-72
2023/08/23 07:21:43;;;;;;;15.50;7.47;;;;;;;19.40;100.00;101931.88;5232754;28;20082;-72
2023/08/23 07:24:14;;;;;;;8.30;6.40;;;;;;;19.53;100.00;101950.34;5250583;28;20029;-69
2023/08/23 07:26:45;;;;;;;11.63;7.03;;;;;;;19.59;100.00;101941.84;5251575;28;20032;-72
2023/08/23 07:29:17;;;;;;;11.20;6.30;;;;;;;19.65;100.00;101944.03;5248716;28;20033;-72
2023/08/23 07:31:48;;;;;;;8.50;6.50;;;;;;;19.74;100.00;101946.91;5251176;28;20063;-72
2023/08/23 07:34:19;;;;;;;7.83;5.90;;;;;;;19.82;100.00;101939.13;5247575;28;20025;-71
2023/08/23 07:36:51;;;;;;;8.60;6.07;;;;;;;20.00;100.00;101950.03;5250856;28;20090;-72
2023/08/23 07:39:24;;;;;;;7.80;6.37;;;;;;;20.13;100.00;101941.94;5251119;28;20529;-71
2023/08/23 07:41:56;;;;;;;11.30;5.97;;;;;;;20.19;100.00;101940.59;5248025;28;20021;-71
2023/08/23 07:44:27;;;;;;;12.67;6.03;;;;;;;20.19;100.00;101953.88;5247507;28;20029;-72
2023/08/23 07:46:58;;;;;;;9.60;6.33;;;;;;;20.30;100.00;101948.50;5252308;28;20383;-72
2023/08/23 07:49:29;;;;;;;9.50;6.10;;;;;;;20.55;100.00;101954.41;5251082;28;20048;-72
2023/08/23 07:52:01;;;;;;;10.73;5.57;;;;;;;20.74;100.00;101951.94;5253066;28;20028;-73
2023/08/23 07:54:32;;;;;;;9.47;6.17;;;;;;;20.80;100.00;101960.25;5230634;28;20087;-73
2023/08/23 07:57:04;;;;;;;11.77;6.07;;;;;;;20.78;100.00;101956.03;5245096;28;20025;-73
2023/08/23 07:59:35;;;;;;;10.83;5.70;;;;;;;20.96;100.00;101948.31;5248672;28;20150;-73
2023/08/23 08:02:06;;;;;;;11.17;6.50;;;;;;;21.05;100.00;101954.63;5229727;28;20035;-72
2023/08/23 08:04:38;;;;;;;8.77;5.73;;;;;;;20.94;100.00;101944.94;5223952;28;20488;-72
2023/08/23 08:07:09;;;;;;;10.27;5.80;;;;;;;21.31;100.00;101948.00;5224648;28;20116;-72
2023/08/23 08:09:40;;;;;;;10.97;5.60;;;;;;;21.46;100.00;101954.63;5246941;28;20044;-71
2023/08/23 08:12:12;;;;;;;12.95;5.65;;;;;;;21.49;100.00;101949.03;5236677;28;20044;-72
2023/08/23 08:14:43;;;;;;;10.32;5.60;;;;;;;21.67;100.00;101953.69;5219947;28;20085;-72
2023/08/23 08:17:14;;;;;;;7.68;4.97;;;;;;;21.69;100.00;101949.06;5250676;28;20108;-71
2023/08/23 08:19:45;;;;;;;6.70;4.45;;;;;;;21.68;100.00;101950.03;5248277;28;20033;-72
2023/08/23 08:22:17;;;;;;;8.98;5.85;;;;;;;21.73;100.00;101954.97;5235172;28;20078;-72
2023/08/23 08:24:48;;;;;;;7.65;4.05;;;;;;;21.96;100.00;101952.03;5241090;28;20032;-72
2023/08/23 08:27:19;;;;;;;8.07;5.25;;;;;;;22.14;100.00;101952.16;5246002;28;20064;-72
2023/08/23 08:29:51;;;;;;;10.30;4.13;;;;;;;22.07;100.00;101951.03;5248504;28;20025;-72
2023/08/23 08:32:22;;;;;;;8.23;4.88;;;;;;;22.24;100.00;101955.66;5229700;28;20033;-72
2023/08/23 08:34:55;;;;;;;8.57;3.45;;;;;;;22.37;100.00;101951.84;5247051;28;20075;-72
2023/08/23 08:37:26;;;;;;;9.18;4.80;;;;;;;22.20;100.00;101940.91;5240461;28;20025;-71
2023/08/23 08:39:58;;;;;;;6.00;3.28;;;;;;;22.57;100.00;101952.63;5250249;28;20075;-73
2023/08/23 08:42:29;;;;;;;10.80;3.83;;;;;;;22.55;100.00;101945.78;5251927;28;20483;-72
2023/08/23 08:45:01;;;;;;;9.05;4.40;;;;;;;22.78;100.00;101943.59;5224857;28;20029;-73
2023/08/23 08:47:32;;;;;;;7.93;4.20;;;;;;;22.88;100.00;101940.06;5249249;28;20020;-72
2023/08/23 08:50:04;;;;;;;7.88;3.67;;;;;;;22.80;100.00;101943.47;5222097;28;20586;-73
2023/08/23 08:52:45;;;;;;;7.22;3.83;;;;;;;23.00;100.00;101946.91;5252924;28;20027;-72
2023/08/23 08:55:20;;;;;;;7.70;3.58;;;;;;;22.95;100.00;101944.66;5239120;28;20025;-72
2023/08/23 08:57:53;;;;;;;;;;;;;;;23.42;100.00;101947.41;5254019;28;20044;-72
2023/08/23 09:00:25;;;;;;;4.65;3.50;;;;;;;23.21;100.00;101946.63;5258491;28;19919;-72
2023/08/23 09:02:57;;;;;;;7.35;3.60;;;;;;;23.37;100.00;101950.47;5259798;28;20025;-72
2023/08/23 09:05:29;;;;;;;7.00;3.47;;;;;;;23.30;100.00;101942.22;5260009;28;20027;-72
2023/08/23 09:08:00;;;;;;;6.40;4.10;;;;;;;23.34;100.00;101950.78;5241040;28;20028;-73
2023/08/23 09:10:32;;;;;;;12.90;3.97;;;;;;;23.43;100.00;101947.25;5225674;28;20047;-72
2023/08/23 09:13:03;;;;;;;7.88;4.28;;;;;;;23.62;100.00;101950.78;5258867;28;20057;-73
2023/08/23 09:15:35;;;;;;;6.95;4.20;;;;;;;24.23;100.00;101941.25;5258199;28;20025;-73
2023/08/23 09:18:06;;;;;;;7.53;3.55;;;;;;;24.10;99.87;101947.84;5259138;28;20028;-73
2023/08/23 09:20:37;;;;;;;14.65;3.97;;;;;;;24.31;96.80;101945.84;5242078;28;20021;-73
2023/08/23 09:23:09;;;;;;;19.15;5.43;;;;;;;24.24;94.88;101945.63;5258712;28;20025;-72
2023/08/23 09:25:40;;;;;;;19.30;4.97;;;;;;;24.36;94.77;101946.22;5251469;28;20056;-72
2023/08/23 09:28:12;;;;;;;18.63;4.82;;;;;;;24.43;96.23;101938.38;5259406;28;20471;-72
2023/08/23 09:30:48;;;;;;;13.30;6.32;;;;;;;24.39;93.91;101941.38;5258423;28;20025;-72
2023/08/23 09:33:20;;;;;;;12.52;6.07;;;;;;;24.47;94.65;101945.94;5257437;28;20029;-72
2023/08/23 09:35:52;;;;;;;12.82;6.72;;;;;;;24.64;96.71;101960.28;5235113;28;20024;-72
2023/08/23 09:38:24;;;;;;;13.05;5.53;;;;;;;24.67;91.25;101952.91;5234729;28;20025;-72
2023/08/23 09:40:56;;;;;;;12.55;6.07;;;;;;;24.70;90.76;101957.97;5256329;28;20429;-72
2023/08/23 09:43:33;;;;;;;10.23;5.03;;;;;;;24.97;89.07;101945.38;5258824;28;20063;-73
2023/08/23 09:46:06;;;;;;;8.23;4.80;;;;;;;24.82;85.48;101940.59;5257862;28;20028;-73
2023/08/23 09:48:41;;;;;;;11.35;5.70;;;;;;;25.11;87.23;101942.09;5257250;28;20029;-72
2023/08/23 09:51:12;;;;;;;13.63;5.40;;;;;;;24.71;83.05;101943.56;5258564;28;20025;-72
2023/08/23 09:53:50;;;;;;;8.60;5.05;;;;;;;25.05;83.79;101942.72;5259148;28;20047;-72
2023/08/23 09:56:22;;;;;;;8.25;3.92;;;;;;;25.19;88.67;101941.28;5257637;28;20028;-72
2023/08/23 09:58:55;;;;;;;9.05;3.42;;;;;;;25.00;76.15;101937.00;5259137;28;20105;-73
2023/08/23 10:01:26;;;;;;;9.63;5.15;;;;;;;25.44;80.82;101940.50;5257639;28;20025;-74
2023/08/23 10:03:58;;;;;;;6.95;4.28;;;;;;;25.29;84.97;101946.47;5237133;28;20025;-74
2023/08/23 10:06:31;;;;;;;10.82;5.63;;;;;;;25.38;81.16;101942.81;5240184;28;20017;-73
2023/08/23 10:09:03;;;;;;;7.67;4.13;;;;;;;25.65;80.37;101942.75;5259218;28;20055;-72
2023/08/23 10:11:35;;;;;;;11.90;3.70;;;;;;;25.52;77.05;101947.72;5254436;28;20032;-72
2023/08/23 10:14:09;;;;;;;9.25;4.65;;;;;;;25.81;76.25;101941.91;5253904;28;20734;-73
2023/08/23 10:16:41;;;;;;;6.40;4.88;;;;;;;25.79;74.37;101948.44;5252310;28;20109;-72
2023/08/23 10:19:12;;;;;;;10.55;4.53;;;;;;;25.66;72.59;101948.94;5242541;28;20021;-75
2023/08/23 10:21:44;;;;;;;9.77;5.25;;;;;;;26.02;76.15;101940.56;5254032;28;20486;-74
2023/08/23 10:24:15;;;;;;;7.00;5.38;;;;;;;26.12;75.60;101944.91;5246445;28;20075;-72
2023/08/23 10:26:52;;;;;;;7.18;4.85;;;;;;;25.88;67.27;101938.56;5254905;28;20024;-73
2023/08/23 10:29:28;;;;;;;6.28;3.35;;;;;;;26.29;69.78;101945.72;5247985;28;20025;-73
2023/08/23 10:32:13;;;;;;;8.18;3.67;;;;;;;26.26;67.39;101933.47;5245531;28;20464;-74
2023/08/23 10:34:44;;;;;;;5.32;2.90;;;;;;;26.13;66.68;101941.22;5250386;28;20430;-74
2023/08/23 10:37:20;;;;;;;6.30;3.45;;;;;;;26.29;62.54;101929.59;5253778;28;20033;-74
2023/08/23 10:39:54;;;;;;;5.93;3.10;;;;;;;26.57;66.89;101937.28;5253899;28;20037;-73
2023/08/23 10:42:25;;;;;;;;;;;;;;;27.22;67.63;101937.22;5254019;28;20085;-73
2023/08/23 10:44:59;;;;;;;8.73;4.30;;;;;;;27.35;60.73;101927.72;5235779;28;19920;-73
2023/08/23 10:47:36;;;;;;;9.10;4.47;;;;;;;27.46;59.92;101932.69;5253719;28;20055;-74
2023/08/23 10:50:12;;;;;;;4.88;3.08;;;;;;;28.15;58.16;101932.81;5254534;28;20032;-72
2023/08/23 10:52:43;;;;;;;8.07;3.75;;;;;;;28.47;54.99;101922.72;5254847;28;20116;-73
2023/08/23 10:55:15;;;;;;;7.28;3.28;;;;;;;28.63;54.81;101924.41;5248034;28;20764;-75
2023/08/23 10:57:46;;;;;;;6.10;3.47;;;;;;;28.44;51.22;101923.13;5242155;28;20160;-74
2023/08/23 11:00:17;;;;;;;6.80;4.80;;;;;;;28.58;51.38;101925.97;5235534;28;20043;-74
2023/08/23 11:02:50;;;;;;;6.18;4.70;;;;;;;28.33;55.31;101928.94;5254847;28;20048;-75
2023/08/23 11:05:22;;;;;;;6.00;4.10;;;;;;;28.28;55.79;101918.69;5254088;28;20021;-73
2023/08/23 11:07:57;;;;;;;8.00;4.38;;;;;;;28.19;57.84;101907.19;5245133;28;20746;-74
2023/08/23 11:10:29;;;;;;;6.00;3.33;;;;;;;28.27;52.75;101909.81;5228309;28;20056;-74
2023/08/23 11:13:00;;;;;;;6.90;4.22;;;;;;;28.38;51.12;101889.66;5253942;28;20127;-75
2023/08/23 11:15:33;;;;;;;6.78;3.10;;;;;;;28.06;54.46;101906.97;5234897;28;20021;-74
2023/08/23 11:18:05;;;;;;;5.60;3.97;;;;;;;28.44;50.79;101898.03;5252607;28;20025;-75
2023/08/23 11:20:36;;;;;;;6.82;3.72;;;;;;;28.23;54.20;101900.41;5250296;28;20025;-74
2023/08/23 11:23:07;;;;;;;6.28;3.42;;;;;;;28.17;51.38;101897.63;5231775;28;20056;-73
2023/08/23 11:25:39;;;;;;;6.65;2.83;;;;;;;28.55;51.70;101891.34;5253754;28;20506;-74
2023/08/23 11:28:12;;;;;;;4.63;2.70;;;;;;;28.25;56.65;101890.31;5252863;28;20043;-73
2023/08/23 11:30:43;;;;;;;7.35;2.83;;;;;;;28.31;51.48;101875.22;5242865;28;20025;-74
2023/08/23 11:33:16;;;;;;;9.75;3.17;;;;;;;28.47;49.63;101894.94;5253332;28;20078;-73
2023/08/23 11:35:47;;;;;;;4.85;2.30;;;;;;;28.60;51.07;101889.75;5234817;28;20557;-74
2023/08/23 11:38:25;;;;;;;9.30;3.88;;;;;;;28.52;45.58;101894.41;5235360;28;20017;-74
2023/08/23 11:40:57;;;;;;;4.05;1.90;;;;;;;28.34;48.16;101887.50;5253200;28;20043;-74